createdAt,value
2019-01-16T00:00:35.148Z,5.13
2019-01-16T00:03:08.336Z,4.90
2019-01-16T00:05:50.673Z,5.80
2019-01-16T00:08:30.061Z,5.83
2019-01-16T00:11:00.258Z,5.67
2019-01-16T00:13:48.673Z,6.10
2019-01-16T00:16:18.876Z,6.20
2019-01-16T00:18:49.171Z,6.80
2019-01-16T00:21:19.368Z,6.80
2019-01-16T00:23:58.407Z,7.00
2019-01-16T00:26:43.612Z,7.97
2019-01-16T00:29:13.836Z,6.90
2019-01-16T00:31:58.924Z,5.83
2019-01-16T00:34:34.966Z,6.30
2019-01-16T00:37:10.671Z,4.90
2019-01-16T00:39:43.638Z,4.60
2019-01-16T00:42:13.824Z,4.77
2019-01-16T00:44:44.054Z,4.83
2019-01-16T00:47:20.314Z,4.67
2019-01-16T00:49:50.533Z,5.00
2019-01-16T00:52:20.725Z,5.30
2019-01-16T00:54:59.670Z,4.67
2019-01-16T00:57:29.865Z,4.87
2019-01-16T01:00:00.230Z,4.40
2019-01-16T01:02:33.336Z,4.67
2019-01-16T01:05:03.695Z,4.70
2019-01-16T01:07:36.872Z,4.77
2019-01-16T01:10:19.981Z,4.33
2019-01-16T01:12:58.969Z,4.43
2019-01-16T01:15:29.187Z,4.27
2019-01-16T01:18:08.151Z,4.50
2019-01-16T01:20:53.269Z,4.40
2019-01-16T01:23:26.504Z,4.67
2019-01-16T01:26:08.821Z,3.87
2019-01-16T01:28:41.705Z,3.60
2019-01-16T01:31:14.845Z,4.07
2019-01-16T01:33:53.888Z,4.27
2019-01-16T01:36:24.185Z,4.30
2019-01-16T01:39:09.488Z,4.43
2019-01-16T01:41:42.502Z,4.00
2019-01-16T01:44:18.492Z,4.20
2019-01-16T01:47:00.581Z,4.03
2019-01-16T01:49:30.772Z,3.70
2019-01-16T01:52:16.824Z,4.20
2019-01-16T01:54:55.492Z,3.97
2019-01-16T01:57:25.712Z,4.30
2019-01-16T02:00:11.999Z,3.33
2019-01-16T02:02:45.312Z,4.00
2019-01-16T02:05:24.372Z,4.10
2019-01-16T02:07:54.786Z,3.70
2019-01-16T02:10:28.028Z,3.57
2019-01-16T02:12:58.256Z,3.50
2019-01-16T02:15:31.159Z,4.30
2019-01-16T02:18:03.806Z,3.83
2019-01-16T02:20:45.868Z,4.80
2019-01-16T02:23:32.214Z,4.20
2019-01-16T02:26:08.368Z,4.50
2019-01-16T02:28:54.575Z,3.90
2019-01-16T02:31:30.576Z,4.40
2019-01-16T02:34:00.773Z,3.93
2019-01-16T02:36:30.961Z,4.87
2019-01-16T02:39:11.445Z,4.10
2019-01-16T02:41:57.715Z,4.13
2019-01-16T02:44:30.713Z,3.93
2019-01-16T02:47:00.928Z,4.00
2019-01-16T02:49:36.635Z,4.10
2019-01-16T02:52:18.436Z,4.20
2019-01-16T02:54:48.631Z,3.50
2019-01-16T02:57:18.860Z,3.37
2019-01-16T02:59:49.045Z,3.37
2019-01-16T03:02:22.347Z,3.50
2019-01-16T03:04:57.954Z,3.53
2019-01-16T03:07:28.244Z,3.90
2019-01-16T03:10:13.482Z,3.63
2019-01-16T03:12:46.224Z,4.10
2019-01-16T03:15:19.130Z,4.00
2019-01-16T03:17:52.032Z,4.60
2019-01-16T03:20:40.110Z,3.60
2019-01-16T03:23:13.428Z,3.67
2019-01-16T03:25:43.690Z,3.63
2019-01-16T03:28:13.980Z,3.10
2019-01-16T03:30:47.185Z,4.20
2019-01-16T03:33:17.474Z,3.27
2019-01-16T03:35:47.665Z,3.80
2019-01-16T03:38:26.474Z,2.80
2019-01-16T03:41:14.277Z,2.90
2019-01-16T03:43:50.773Z,3.17
2019-01-16T03:46:23.555Z,2.93
2019-01-16T03:49:13.084Z,2.20
2019-01-16T03:51:53.839Z,2.83
2019-01-16T03:54:29.928Z,2.83
2019-01-16T03:57:08.981Z,2.80
2019-01-16T03:59:39.205Z,3.00
2019-01-16T04:02:09.395Z,2.43
2019-01-16T04:04:39.626Z,2.63
2019-01-16T04:07:15.867Z,2.47
2019-01-16T04:09:51.933Z,2.90
2019-01-16T04:12:28.173Z,3.30
2019-01-16T04:15:14.727Z,2.40
2019-01-16T04:17:44.990Z,2.83
2019-01-16T04:20:18.202Z,2.87
2019-01-16T04:23:04.424Z,2.67
2019-01-16T04:25:40.345Z,2.87
2019-01-16T04:28:19.281Z,2.60
2019-01-16T04:31:05.841Z,2.50
2019-01-16T04:33:47.932Z,2.70
2019-01-16T04:36:30.220Z,3.13
2019-01-16T04:39:15.212Z,2.73
2019-01-16T04:41:51.149Z,2.90
2019-01-16T04:44:26.990Z,3.07
2019-01-16T04:47:05.672Z,3.20
2019-01-16T04:49:44.745Z,2.77
2019-01-16T04:52:21.004Z,2.13
2019-01-16T04:54:56.802Z,2.60
2019-01-16T04:57:39.156Z,2.27
2019-01-16T05:00:24.472Z,2.67
2019-01-16T05:03:11.050Z,2.70
2019-01-16T05:05:53.304Z,2.53
2019-01-16T05:08:29.311Z,2.60
2019-01-16T05:11:02.735Z,2.57
2019-01-16T05:13:32.921Z,2.60
2019-01-16T05:16:03.146Z,2.60
2019-01-16T05:18:49.661Z,2.97
2019-01-16T05:21:28.941Z,2.73
2019-01-16T05:24:05.225Z,2.83
2019-01-16T05:26:41.068Z,2.63
2019-01-16T05:29:20.121Z,2.93
2019-01-16T05:32:05.365Z,3.13
2019-01-16T05:34:41.330Z,2.73
2019-01-16T05:37:23.099Z,2.73
2019-01-16T05:39:53.295Z,3.00
2019-01-16T05:42:26.300Z,2.73
2019-01-16T05:44:56.492Z,2.90
2019-01-16T05:47:35.585Z,3.03
2019-01-16T05:50:13.937Z,3.77
2019-01-16T05:52:56.133Z,3.30
2019-01-16T05:55:38.411Z,4.00
2019-01-16T05:58:14.407Z,3.43
2019-01-16T06:00:47.347Z,3.67
2019-01-16T06:03:19.985Z,3.67
2019-01-16T06:06:06.060Z,3.80
2019-01-16T06:08:52.299Z,3.70
2019-01-16T06:11:25.405Z,3.23
2019-01-16T06:14:04.763Z,3.73
2019-01-16T06:16:40.780Z,3.97
2019-01-16T06:19:25.900Z,4.87
2019-01-16T06:22:08.152Z,4.00
2019-01-16T06:24:47.168Z,5.53
2019-01-16T06:27:20.325Z,3.30
2019-01-16T06:29:53.174Z,3.97
2019-01-16T06:32:29.364Z,3.87
2019-01-16T06:35:05.475Z,3.30
2019-01-16T06:37:35.708Z,3.17
2019-01-16T06:40:17.360Z,2.93
2019-01-16T06:42:53.541Z,3.10
2019-01-16T06:45:35.499Z,3.40
2019-01-16T06:48:05.896Z,2.93
2019-01-16T06:50:41.860Z,2.87
2019-01-16T06:53:12.117Z,3.80
2019-01-16T06:55:58.944Z,3.67
2019-01-16T06:58:38.283Z,3.33
2019-01-16T07:01:11.389Z,3.20
2019-01-16T07:03:47.828Z,3.20
2019-01-16T07:06:21.039Z,3.13
2019-01-16T07:08:53.195Z,3.00
2019-01-16T07:11:37.465Z,3.10
2019-01-16T07:14:11.123Z,4.00
2019-01-16T07:16:54.532Z,3.87
2019-01-16T07:19:27.324Z,3.43
2019-01-16T07:21:57.543Z,3.27
2019-01-16T07:24:29.162Z,2.60
2019-01-16T07:27:11.139Z,3.37
2019-01-16T07:29:53.556Z,3.93
2019-01-16T07:32:40.182Z,3.33
2019-01-16T07:35:26.625Z,2.87
2019-01-16T07:37:56.888Z,4.03
2019-01-16T07:40:43.298Z,3.47
2019-01-16T07:43:13.564Z,3.80
2019-01-16T07:45:55.491Z,3.00
2019-01-16T07:48:31.139Z,3.80
2019-01-16T07:51:17.452Z,3.53
2019-01-16T07:53:59.709Z,3.77
2019-01-16T07:56:35.317Z,3.90
2019-01-16T07:59:11.176Z,3.37
2019-01-16T08:01:53.545Z,3.60
2019-01-16T08:04:29.413Z,4.30
2019-01-16T08:07:00.493Z,5.60
2019-01-16T08:09:39.774Z,5.87
2019-01-16T08:12:12.776Z,7.13
2019-01-16T08:14:54.813Z,6.33
2019-01-16T08:17:43.074Z,5.70
2019-01-16T08:20:15.888Z,5.33
2019-01-16T08:22:48.873Z,4.70
2019-01-16T08:25:21.602Z,3.77
2019-01-16T08:27:51.792Z,3.80
2019-01-16T08:30:30.904Z,4.90
2019-01-16T08:33:19.288Z,3.93
2019-01-16T08:35:52.280Z,4.00
2019-01-16T08:38:28.812Z,4.03
2019-01-16T08:41:08.066Z,4.83
2019-01-16T08:43:54.530Z,3.50
2019-01-16T08:46:30.740Z,3.53
2019-01-16T08:49:15.830Z,3.33
2019-01-16T08:52:01.062Z,3.27
2019-01-16T08:54:39.772Z,3.40
2019-01-16T08:57:18.478Z,3.60
2019-01-16T09:00:00.572Z,2.90
2019-01-16T09:02:47.485Z,3.50
2019-01-16T09:05:18.124Z,3.63
2019-01-16T09:08:04.394Z,3.63
2019-01-16T09:10:49.700Z,3.30
2019-01-16T09:13:36.198Z,3.40
2019-01-16T09:16:09.328Z,2.83
2019-01-16T09:18:51.525Z,3.17
2019-01-16T09:21:33.837Z,3.33
2019-01-16T09:24:04.025Z,3.33
2019-01-16T09:26:36.693Z,3.53
2019-01-16T09:29:09.666Z,3.70
2019-01-16T09:31:42.644Z,2.80
2019-01-16T09:34:24.541Z,2.67
2019-01-16T09:36:54.824Z,2.93
2019-01-16T09:39:25.024Z,2.83
2019-01-16T09:42:04.204Z,3.27
2019-01-16T09:44:37.062Z,3.27
2019-01-16T09:47:07.281Z,2.90
2019-01-16T09:49:53.609Z,3.03
2019-01-16T09:52:39.945Z,3.50
2019-01-16T09:55:10.297Z,2.67
2019-01-16T09:57:46.336Z,3.70
2019-01-16T10:00:27.516Z,2.50
2019-01-16T10:03:13.799Z,2.67
2019-01-16T10:05:43.989Z,2.97
2019-01-16T10:08:14.208Z,3.20
2019-01-16T10:10:47.353Z,2.77
2019-01-16T10:13:26.756Z,3.00
2019-01-16T10:16:13.009Z,3.03
2019-01-16T10:18:58.307Z,3.00
2019-01-16T10:21:31.185Z,3.00
2019-01-16T10:24:01.549Z,2.53
2019-01-16T10:26:31.817Z,3.40
2019-01-16T10:29:05.061Z,2.60
2019-01-16T10:31:52.844Z,3.63
2019-01-16T10:34:23.203Z,3.23
2019-01-16T10:37:05.348Z,2.67
2019-01-16T10:39:35.617Z,2.90
2019-01-16T10:42:11.277Z,3.33
2019-01-16T10:44:47.467Z,2.80
2019-01-16T10:47:17.678Z,3.23
2019-01-16T10:49:59.968Z,2.63
2019-01-16T10:52:39.054Z,3.27
2019-01-16T10:55:09.400Z,3.00
2019-01-16T10:57:55.852Z,2.90
2019-01-16T11:00:32.105Z,3.17
2019-01-16T11:03:05.435Z,2.70
2019-01-16T11:05:51.499Z,2.93
2019-01-16T11:08:24.837Z,2.30
2019-01-16T11:11:01.005Z,2.63
2019-01-16T11:13:40.197Z,2.43
2019-01-16T11:16:17.675Z,2.33
2019-01-16T11:18:53.548Z,3.17
2019-01-16T11:21:38.939Z,2.50
2019-01-16T11:24:11.988Z,2.60
2019-01-16T11:26:57.328Z,2.77
2019-01-16T11:29:43.401Z,2.37
2019-01-16T11:32:13.709Z,2.33
2019-01-16T11:34:43.896Z,3.00
2019-01-16T11:37:14.129Z,3.00
2019-01-16T11:40:04.686Z,2.63
2019-01-16T11:42:43.059Z,2.67
2019-01-16T11:45:18.929Z,2.87
2019-01-16T11:48:04.000Z,2.83
2019-01-16T11:50:36.986Z,3.40
2019-01-16T11:53:22.045Z,3.27
2019-01-16T11:55:58.018Z,3.33
2019-01-16T11:58:30.925Z,2.93
2019-01-16T12:01:12.983Z,3.07
2019-01-16T12:03:43.185Z,2.63
2019-01-16T12:06:19.119Z,3.60
2019-01-16T12:08:52.100Z,2.63
2019-01-16T12:11:25.297Z,3.10
2019-01-16T12:14:10.371Z,3.03
2019-01-16T12:16:58.804Z,3.40
2019-01-16T12:19:28.987Z,3.20
2019-01-16T12:22:04.996Z,3.40
2019-01-16T12:24:46.958Z,3.50
2019-01-16T12:27:17.248Z,3.10
2019-01-16T12:29:56.476Z,4.37
2019-01-16T12:32:41.749Z,4.70
2019-01-16T12:35:23.956Z,4.17
2019-01-16T12:38:06.127Z,3.80
2019-01-16T12:40:52.517Z,3.10
2019-01-16T12:43:38.744Z,4.37
2019-01-16T12:46:20.730Z,3.57
2019-01-16T12:48:50.957Z,3.20
2019-01-16T12:51:33.473Z,3.80
2019-01-16T12:54:01.677Z,3.40
2019-01-16T12:56:37.548Z,2.90
2019-01-16T12:59:23.793Z,3.53
2019-01-16T13:01:56.752Z,3.67
2019-01-16T13:04:30.057Z,4.00
2019-01-16T13:07:06.838Z,3.33
2019-01-16T13:09:39.531Z,4.00
2019-01-16T13:12:09.887Z,3.13
2019-01-16T13:14:43.377Z,3.77
2019-01-16T13:17:28.248Z,3.17
2019-01-16T13:19:58.444Z,4.00
2019-01-16T13:22:34.713Z,4.33
2019-01-16T13:25:06.338Z,4.07
2019-01-16T13:27:52.656Z,3.50
2019-01-16T13:30:38.784Z,4.00
2019-01-16T13:33:15.136Z,3.43
2019-01-16T13:36:00.424Z,3.67
2019-01-16T13:38:36.296Z,3.50
2019-01-16T13:41:07.368Z,3.50
2019-01-16T13:43:38.912Z,4.30
2019-01-16T13:46:25.053Z,3.80
2019-01-16T13:49:07.160Z,3.97
2019-01-16T13:51:37.361Z,4.43
2019-01-16T13:54:19.892Z,3.93
2019-01-16T13:56:53.074Z,7.63
2019-01-16T13:59:26.337Z,4.33
2019-01-16T14:01:59.373Z,4.17
2019-01-16T14:04:38.685Z,4.00
2019-01-16T14:07:08.960Z,3.87
2019-01-16T14:09:55.533Z,3.10
2019-01-16T14:12:28.496Z,3.47
2019-01-16T14:15:15.169Z,3.60
2019-01-16T14:17:57.344Z,3.50
2019-01-16T14:20:36.452Z,3.93
2019-01-16T14:23:23.580Z,3.57
2019-01-16T14:25:53.864Z,3.57
2019-01-16T14:28:39.801Z,3.90
2019-01-16T14:31:26.710Z,3.93
2019-01-16T14:33:59.741Z,3.77
2019-01-16T14:36:33.033Z,3.40
2019-01-16T14:39:18.141Z,3.97
2019-01-16T14:41:48.401Z,3.20
2019-01-16T14:44:21.369Z,4.00
2019-01-16T14:46:57.333Z,3.37
2019-01-16T14:49:30.375Z,3.80
2019-01-16T14:52:00.709Z,3.73
2019-01-16T14:54:40.006Z,3.37
2019-01-16T14:57:12.811Z,3.90
2019-01-16T14:59:46.062Z,3.87
2019-01-16T15:02:25.443Z,3.97
2019-01-16T15:04:55.747Z,3.67
2019-01-16T15:07:25.933Z,4.00
2019-01-16T15:09:56.164Z,4.33
2019-01-16T15:12:31.877Z,4.70
2019-01-16T15:15:05.544Z,4.90
2019-01-16T15:17:38.754Z,4.20
2019-01-16T15:20:11.784Z,4.50
2019-01-16T15:22:44.661Z,4.20
2019-01-16T15:25:14.958Z,4.23
2019-01-16T15:27:51.110Z,4.30
2019-01-16T15:30:27.504Z,5.03
2019-01-16T15:32:57.761Z,5.42
2019-01-16T15:35:40.091Z,4.43
2019-01-16T15:38:18.921Z,4.90
2019-01-16T15:41:07.324Z,5.17
2019-01-16T15:43:42.944Z,4.80
2019-01-16T15:46:13.234Z,5.20
2019-01-16T15:48:59.465Z,4.67
2019-01-16T15:51:41.568Z,4.80
2019-01-16T15:54:23.730Z,4.80
2019-01-16T15:56:55.239Z,5.07
2019-01-16T15:59:25.449Z,6.17
2019-01-16T16:01:55.800Z,5.50
2019-01-16T16:04:34.712Z,6.10
2019-01-16T16:07:10.976Z,5.60
2019-01-16T16:09:44.237Z,5.43
2019-01-16T16:12:20.497Z,5.53
2019-01-16T16:15:06.431Z,5.83
2019-01-16T16:17:52.798Z,5.50
2019-01-16T16:20:23.060Z,5.50
2019-01-16T16:23:05.238Z,5.47
2019-01-16T16:25:35.497Z,5.60
2019-01-16T16:28:22.059Z,6.50
2019-01-16T16:30:52.276Z,7.93
2019-01-16T16:33:38.552Z,7.90
2019-01-16T16:36:08.820Z,6.83
2019-01-16T16:38:55.056Z,7.50
2019-01-16T16:41:27.965Z,7.63
2019-01-16T16:44:04.220Z,7.67
2019-01-16T16:46:34.445Z,8.47
2019-01-16T16:49:04.641Z,15.07
2019-01-16T16:51:46.968Z,10.57
2019-01-16T16:54:32.987Z,10.90
2019-01-16T16:57:05.838Z,7.90
2019-01-16T16:59:41.638Z,8.53
2019-01-16T17:02:20.708Z,9.10
2019-01-16T17:04:56.628Z,9.90
2019-01-16T17:07:26.917Z,8.90
2019-01-16T17:09:59.745Z,9.57
2019-01-16T17:12:42.118Z,10.73
2019-01-16T17:15:29.572Z,10.30
2019-01-16T17:17:59.859Z,10.43
2019-01-16T17:20:46.504Z,10.63
2019-01-16T17:23:32.753Z,11.93
2019-01-16T17:26:05.796Z,12.93
2019-01-16T17:28:47.817Z,13.20
2019-01-16T17:31:23.601Z,13.70
2019-01-16T17:33:59.525Z,13.50
2019-01-16T17:36:41.880Z,12.20
2019-01-16T17:39:12.178Z,11.77
2019-01-16T17:41:42.515Z,11.47
2019-01-16T17:44:12.744Z,12.40
2019-01-16T17:46:42.943Z,10.10
2019-01-16T17:49:13.245Z,9.30
2019-01-16T17:51:49.388Z,8.73
2019-01-16T17:54:19.608Z,8.87
2019-01-16T17:56:55.869Z,9.83
2019-01-16T17:59:26.088Z,8.47
2019-01-16T18:02:12.308Z,8.13
2019-01-16T18:04:58.528Z,8.27
2019-01-16T18:07:34.579Z,7.50
2019-01-16T18:10:22.996Z,6.80
2019-01-16T18:13:01.948Z,6.70
2019-01-16T18:15:48.376Z,6.80
2019-01-16T18:18:24.400Z,5.27
2019-01-16T18:20:54.619Z,6.07
2019-01-16T18:23:41.117Z,5.27
2019-01-16T18:26:11.401Z,5.83
2019-01-16T18:28:57.369Z,5.23
2019-01-16T18:31:39.205Z,4.63
2019-01-16T18:34:14.889Z,5.37
2019-01-16T18:36:45.149Z,4.97
2019-01-16T18:39:31.706Z,5.60
2019-01-16T18:42:18.026Z,5.23
2019-01-16T18:45:00.268Z,5.00
2019-01-16T18:47:36.242Z,4.83
2019-01-16T18:50:25.654Z,5.37
2019-01-16T18:53:11.828Z,4.77
2019-01-16T18:55:42.045Z,5.03
2019-01-16T18:58:17.983Z,5.53
2019-01-16T19:00:51.149Z,4.20
2019-01-16T19:03:21.367Z,5.07
2019-01-16T19:06:07.660Z,5.50
2019-01-16T19:08:40.876Z,5.07
2019-01-16T19:11:11.101Z,4.50
2019-01-16T19:13:42.832Z,5.00
2019-01-16T19:16:19.089Z,4.90
2019-01-16T19:19:04.153Z,5.27
2019-01-16T19:21:37.188Z,4.30
2019-01-16T19:24:21.905Z,5.50
2019-01-16T19:27:03.699Z,5.80
2019-01-16T19:29:39.632Z,5.17
2019-01-16T19:32:24.503Z,4.80
2019-01-16T19:35:00.212Z,4.60
2019-01-16T19:37:46.361Z,5.23
2019-01-16T19:40:16.620Z,5.10
2019-01-16T19:42:46.853Z,5.20
2019-01-16T19:45:26.199Z,4.90
2019-01-16T19:47:56.552Z,5.13
2019-01-16T19:50:26.740Z,5.20
2019-01-16T19:52:56.955Z,5.60
2019-01-16T19:55:36.262Z,5.53
2019-01-16T19:58:15.468Z,5.87
2019-01-16T20:00:45.661Z,5.23
2019-01-16T20:03:18.849Z,4.77
2019-01-16T20:05:49.177Z,5.20
2019-01-16T20:08:23.426Z,5.53
2019-01-16T20:11:02.796Z,5.20
2019-01-16T20:13:35.501Z,5.60
2019-01-16T20:16:05.840Z,4.70
2019-01-16T20:18:38.992Z,5.63
2019-01-16T20:21:25.270Z,4.97
2019-01-16T20:24:13.105Z,5.60
2019-01-16T20:26:43.442Z,5.50
2019-01-16T20:29:13.682Z,5.33
2019-01-16T20:31:43.884Z,5.37
2019-01-16T20:34:26.261Z,5.03
2019-01-16T20:37:05.648Z,4.83
2019-01-16T20:39:35.877Z,5.17
2019-01-16T20:42:21.251Z,4.70
2019-01-16T20:44:51.547Z,4.80
2019-01-16T20:47:27.659Z,5.40
2019-01-16T20:50:00.795Z,5.13
2019-01-16T20:52:31.056Z,4.70
2019-01-16T20:55:01.289Z,5.70
2019-01-16T20:57:34.270Z,5.50
2019-01-16T21:00:07.282Z,5.20
2019-01-16T21:02:37.471Z,5.43
2019-01-16T21:05:17.038Z,4.97
2019-01-16T21:07:56.199Z,5.07
2019-01-16T21:10:26.483Z,4.97
2019-01-16T21:12:59.649Z,4.67
2019-01-16T21:15:51.770Z,4.73
2019-01-16T21:18:18.060Z,5.57
2019-01-16T21:20:48.344Z,5.93
2019-01-16T21:23:23.813Z,6.47
2019-01-16T21:26:02.299Z,5.00
2019-01-16T21:28:41.209Z,5.37
2019-01-16T21:31:11.441Z,5.57
2019-01-16T21:33:44.566Z,5.33
2019-01-16T21:36:14.848Z,5.33
2019-01-16T21:38:51.088Z,6.07
2019-01-16T21:41:37.324Z,5.97
2019-01-16T21:44:10.370Z,6.13
2019-01-16T21:46:46.639Z,5.70
2019-01-16T21:49:32.836Z,6.40
2019-01-16T21:52:08.793Z,5.57
2019-01-16T21:54:38.993Z,4.97
2019-01-16T21:57:12.389Z,6.77
2019-01-16T21:59:58.571Z,7.80
2019-01-16T22:02:34.772Z,7.27
2019-01-16T22:05:22.046Z,7.07
2019-01-16T22:08:04.153Z,6.87
2019-01-16T22:10:49.532Z,7.80
2019-01-16T22:13:39.080Z,6.40
2019-01-16T22:16:09.457Z,5.90
2019-01-16T22:18:42.487Z,6.00
2019-01-16T22:21:15.503Z,5.80
2019-01-16T22:24:01.769Z,5.83
2019-01-16T22:26:35.096Z,6.10
2019-01-16T22:29:08.058Z,5.97
2019-01-16T22:31:38.329Z,6.50
2019-01-16T22:34:11.631Z,6.67
2019-01-16T22:36:41.843Z,12.77
2019-01-16T22:39:24.088Z,6.60
2019-01-16T22:41:54.308Z,7.27
2019-01-16T22:44:30.192Z,7.27
2019-01-16T22:47:16.558Z,6.17
2019-01-16T22:50:02.835Z,6.73
2019-01-16T22:52:33.057Z,6.83
2019-01-16T22:55:03.256Z,6.80
2019-01-16T22:57:49.352Z,7.00
2019-01-16T23:00:40.200Z,6.77
2019-01-16T23:03:10.515Z,6.93
2019-01-16T23:05:40.704Z,7.20
2019-01-16T23:08:10.927Z,6.60
2019-01-16T23:10:43.604Z,6.57
2019-01-16T23:13:13.833Z,7.47
2019-01-16T23:15:44.029Z,7.37
2019-01-16T23:18:19.953Z,7.07
2019-01-16T23:21:01.579Z,7.63
2019-01-16T23:23:49.944Z,7.93
2019-01-16T23:26:28.871Z,7.37
2019-01-16T23:29:07.865Z,7.97
2019-01-16T23:31:54.333Z,7.67
2019-01-16T23:34:24.630Z,7.60
2019-01-16T23:37:03.603Z,7.67
2019-01-16T23:39:33.820Z,7.77
2019-01-16T23:42:16.176Z,8.23
2019-01-16T23:45:02.707Z,7.90
2019-01-16T23:47:35.917Z,7.57
2019-01-16T23:50:09.164Z,7.60
2019-01-16T23:52:45.057Z,7.80
2019-01-16T23:55:15.277Z,8.10
2019-01-16T23:57:51.507Z,7.27
